Time;durP1;ratioP1;P1;durP2;ratioP2;P2;SDS_P1;SDS_P2;PMS_P1;PMS_P2;Temp;Humidity;BMP_temperature;BMP_pressure;BME280_temperature;BME280_humidity;BME280_pressure;Samples;Min_cycle;Max_cycle;Signal;HPM_P1;HPM_P2
2022/11/23 00:00:10;;;;;;;20.38;11.40;;;6.30;99.90;6.70;98424.00;;;;336220;28;86330;-91
2022/11/23 00:00:22;;;;;;;20.60;11.65;;;6.30;99.90;6.60;98418.00;;;;336213;28;88361;-92
2022/11/23 00:00:34;;;;;;;21.55;12.18;;;6.30;99.90;6.60;98418.00;;;;337587;28;85929;-91
2022/11/23 00:00:46;;;;;;;23.63;12.15;;;6.30;99.90;6.60;98421.00;;;;338529;28;92726;-92
2022/11/23 00:01:18;;;;;;;20.08;11.00;;;6.30;99.90;6.50;98430.00;;;;337671;28;83999;-93
2022/11/23 00:01:32;;;;;;;14.82;9.85;;;6.30;99.90;6.50;98407.00;;;;338612;28;89213;-92
2022/11/23 00:01:44;;;;;;;16.33;10.43;;;6.30;99.90;6.50;98425.00;;;;338945;28;84314;-91
2022/11/23 00:01:56;;;;;;;17.25;10.98;;;6.30;99.90;6.50;98415.00;;;;341135;28;92296;-92
2022/11/23 00:02:08;;;;;;;18.05;10.77;;;6.30;99.90;6.60;98422.00;;;;339774;28;85376;-92
2022/11/23 00:02:20;;;;;;;18.75;11.00;;;6.30;99.90;6.60;98418.00;;;;337122;28;91316;-91
2022/11/23 00:02:32;;;;;;;20.58;11.38;;;6.30;99.90;6.50;98424.00;;;;337642;28;84406;-92
2022/11/23 00:02:44;;;;;;;20.33;11.18;;;6.30;99.90;6.50;98421.00;;;;338552;28;91718;-91
2022/11/23 00:02:56;;;;;;;17.02;10.63;;;6.30;99.90;6.50;98419.00;;;;336391;28;84661;-91
2022/11/23 00:03:13;;;;;;;17.92;10.55;;;6.30;99.90;6.60;98421.00;;;;337026;28;91539;-92
2022/11/23 00:03:25;;;;;;;17.77;9.95;;;6.30;99.90;6.60;98413.00;;;;334482;29;83857;-91
2022/11/23 00:03:37;;;;;;;15.88;10.35;;;6.30;99.90;6.60;98419.00;;;;337603;28;89384;-90
2022/11/23 00:03:52;;;;;;;17.50;10.95;;;6.30;99.90;6.60;98404.00;;;;339216;28;84177;-92
2022/11/23 00:04:09;;;;;;;18.33;10.95;;;6.30;99.90;6.60;98419.00;;;;338375;28;91676;-92
2022/11/23 00:04:23;;;;;;;15.88;10.75;;;6.30;99.90;6.60;98414.00;;;;340313;28;85229;-91
2022/11/23 00:04:35;;;;;;;17.45;11.27;;;6.30;99.90;6.50;98415.00;;;;338515;28;89837;-92
2022/11/23 00:04:47;;;;;;;18.60;11.38;;;6.30;99.90;6.40;98419.00;;;;338948;28;86287;-92
2022/11/23 00:04:59;;;;;;;20.42;12.07;;;6.20;99.90;6.50;98421.00;;;;340068;28;88863;-90
2022/11/23 00:05:11;;;;;;;19.55;11.60;;;6.20;99.90;6.70;98422.00;;;;340354;28;84028;-91
2022/11/23 00:05:24;;;;;;;23.25;12.65;;;6.20;99.90;6.70;98416.00;;;;338393;28;91582;-91
2022/11/23 00:05:35;;;;;;;22.85;12.38;;;6.30;99.90;6.60;98410.00;;;;340322;28;87989;-91
2022/11/23 00:05:47;;;;;;;22.77;12.52;;;6.20;99.90;6.60;98415.00;;;;338767;28;90067;-91
2022/11/23 00:06:01;;;;;;;21.52;12.57;;;6.20;99.90;6.60;98420.00;;;;337604;28;86154;-92
2022/11/23 00:06:13;;;;;;;22.48;12.18;;;6.20;99.90;6.60;98405.00;;;;339982;28;89861;-91
2022/11/23 00:06:25;;;;;;;21.85;12.32;;;6.20;99.90;6.70;98412.00;;;;338784;28;86407;-92
2022/11/23 00:06:37;;;;;;;20.00;12.52;;;6.20;99.90;6.60;98419.00;;;;337578;28;86839;-92
2022/11/23 00:06:49;;;;;;;18.63;12.90;;;6.20;99.90;6.60;98403.00;;;;338968;28;85210;-92
2022/11/23 00:07:01;;;;;;;20.65;12.90;;;6.20;99.90;6.60;98412.00;;;;337521;28;89752;-91
2022/11/23 00:07:12;;;;;;;21.10;12.73;;;6.20;99.90;6.60;98415.00;;;;340172;28;86586;-91
2022/11/23 00:07:24;;;;;;;22.02;12.43;;;6.20;99.90;6.50;98418.00;;;;338725;28;90554;-92
2022/11/23 00:07:36;;;;;;;22.55;12.30;;;6.20;99.90;6.50;98421.00;;;;337607;28;85799;-92
2022/11/23 00:07:48;;;;;;;21.33;12.30;;;6.20;99.90;6.40;98407.00;;;;338497;28;89418;-92
2022/11/23 00:08:00;;;;;;;20.98;12.18;;;6.20;99.90;6.40;98415.00;;;;338870;28;87398;-92
2022/11/23 00:08:12;;;;;;;22.35;12.75;;;6.20;99.90;6.50;98414.00;;;;338789;28;89553;-91
2022/11/23 00:08:24;;;;;;;22.77;12.90;;;6.20;99.90;6.40;98420.00;;;;336368;28;86733;-92
2022/11/23 00:08:35;;;;;;;21.70;12.77;;;6.20;99.90;6.30;98413.00;;;;337455;28;88246;-92
2022/11/23 00:08:48;;;;;;;19.38;12.43;;;6.20;99.90;6.30;98414.00;;;;338677;28;86457;-92
2022/11/23 00:09:00;;;;;;;23.70;12.68;;;6.20;99.90;6.20;98416.00;;;;337471;28;86914;-92
2022/11/23 00:09:12;;;;;;;23.17;13.13;;;6.20;99.90;6.30;98415.00;;;;339088;28;85157;-92
2022/11/23 00:09:24;;;;;;;21.55;13.40;;;6.20;99.90;6.30;98412.00;;;;336059;28;91278;-91
2022/11/23 00:09:35;;;;;;;20.40;13.18;;;6.20;99.90;6.20;98418.00;;;;337712;28;84067;-93
2022/11/23 00:09:47;;;;;;;23.65;13.95;;;6.20;99.90;6.20;98413.00;;;;338697;28;89948;-91
2022/11/23 00:09:59;;;;;;;22.02;13.85;;;6.20;99.90;6.30;98413.00;;;;339069;28;84730;-93
2022/11/23 00:10:11;;;;;;;24.17;14.45;;;6.20;99.90;6.30;98420.00;;;;338737;28;88541;-92
2022/11/23 00:10:23;;;;;;;21.58;13.23;;;6.20;99.90;6.30;98414.00;;;;337799;28;87081;-92
2022/11/23 00:10:35;;;;;;;21.75;13.30;;;6.20;99.90;6.20;98415.00;;;;337515;28;88936;-92
2022/11/23 00:10:46;;;;;;;20.17;12.38;;;6.20;99.90;6.30;98419.00;;;;340318;28;85611;-91
2022/11/23 00:10:58;;;;;;;19.38;11.85;;;6.20;99.90;6.30;98413.00;;;;339838;28;92099;-91
2022/11/23 00:11:10;;;;;;;18.42;12.20;;;6.20;99.90;6.40;98418.00;;;;337487;28;86270;-91
2022/11/23 00:11:23;;;;;;;17.33;12.00;;;6.20;99.90;6.40;98414.00;;;;337100;28;89786;-90
2022/11/23 00:11:35;;;;;;;16.80;11.75;;;6.20;99.90;6.50;98417.00;;;;339076;28;83591;-91
2022/11/23 00:11:47;;;;;;;19.17;12.15;;;6.20;99.90;6.40;98416.00;;;;338810;28;87481;-92
2022/11/23 00:11:59;;;;;;;20.85;12.43;;;6.20;99.90;6.40;98417.00;;;;339083;28;84672;-92
2022/11/23 00:12:11;;;;;;;20.27;12.60;;;6.20;99.90;6.40;98415.00;;;;339961;28;89807;-92
2022/11/23 00:12:22;;;;;;;20.40;12.25;;;6.20;99.90;6.40;98412.00;;;;338847;28;83232;-91
2022/11/23 00:12:34;;;;;;;21.15;12.27;;;6.20;99.90;6.40;98411.00;;;;338821;28;89349;-91
2022/11/23 00:12:46;;;;;;;21.50;12.65;;;6.20;99.90;6.50;98413.00;;;;337790;28;83455;-92
2022/11/23 00:12:58;;;;;;;21.23;12.27;;;6.20;99.90;6.40;98415.00;;;;336206;28;87750;-92
2022/11/23 00:13:10;;;;;;;20.67;12.15;;;6.20;99.90;6.40;98414.00;;;;337726;28;83187;-91
2022/11/23 00:13:22;;;;;;;22.50;11.82;;;6.20;99.90;6.40;98410.00;;;;337289;28;91737;-91
2022/11/23 00:13:34;;;;;;;22.13;12.65;;;6.20;99.90;6.40;98409.00;;;;338784;28;83794;-92
2022/11/23 00:13:46;;;;;;;21.40;12.85;;;6.20;99.90;6.40;98411.00;;;;338842;28;87450;-92
2022/11/23 00:13:58;;;;;;;21.05;13.02;;;6.10;99.90;6.40;98410.00;;;;340273;28;84389;-91
2022/11/23 00:14:10;;;;;;;21.25;12.73;;;6.20;99.90;6.30;98411.00;;;;339972;28;89841;-92
2022/11/23 00:14:22;;;;;;;18.67;11.95;;;6.20;99.90;6.40;98418.00;;;;341732;28;83967;-91
2022/11/23 00:14:34;;;;;;;19.38;12.05;;;6.20;99.90;6.50;98417.00;;;;339962;28;88485;-92
2022/11/23 00:14:46;;;;;;;18.65;12.00;;;6.20;99.90;6.50;98409.00;;;;337529;28;85221;-91
2022/11/23 00:14:58;;;;;;;18.40;11.75;;;6.20;99.90;6.40;98407.00;;;;337339;28;89372;-92
2022/11/23 00:15:11;;;;;;;18.15;11.52;;;6.20;99.90;6.40;98412.00;;;;339016;28;84298;-92
2022/11/23 00:15:23;;;;;;;20.67;12.13;;;6.10;99.90;6.40;98406.00;;;;338808;28;90184;-91
2022/11/23 00:15:34;;;;;;;19.90;11.63;;;6.10;99.90;6.40;98413.00;;;;340197;28;85972;-92
2022/11/23 00:15:46;;;;;;;23.02;12.88;;;6.10;99.90;6.40;98410.00;;;;340024;28;90398;-91
2022/11/23 00:15:58;;;;;;;22.63;12.90;;;6.10;99.90;6.40;98410.00;;;;340490;28;83927;-92
2022/11/23 00:16:21;;;;;;;25.25;13.63;;;6.10;99.90;6.40;98405.00;;;;338509;28;92507;-92
2022/11/23 00:16:33;;;;;;;24.02;13.30;;;6.10;99.90;6.40;98410.00;;;;340270;28;85844;-92
2022/11/23 00:16:45;;;;;;;23.04;12.90;;;6.10;99.90;6.50;98412.00;;;;341414;28;90064;-92
2022/11/23 00:16:57;;;;;;;23.02;12.88;;;6.10;99.90;6.50;98407.00;;;;340404;28;84658;-91
2022/11/23 00:17:08;;;;;;;20.13;12.65;;;6.10;99.90;6.60;98411.00;;;;338831;28;88289;-92
2022/11/23 00:17:38;;;;;;;22.77;12.82;;;6.10;99.90;6.40;98403.00;;;;338894;28;83535;-92
2022/11/23 00:17:50;;;;;;;24.98;14.27;;;6.10;99.90;6.50;98406.00;;;;337221;28;91114;-92
2022/11/23 00:18:02;;;;;;;25.70;14.48;;;6.20;99.90;6.60;98401.00;;;;337519;28;85033;-90
2022/11/23 00:18:14;;;;;;;21.25;13.43;;;6.20;99.90;6.60;98406.00;;;;337434;28;89173;-92
2022/11/23 00:18:26;;;;;;;20.63;13.95;;;6.20;99.90;6.60;98400.00;;;;337799;28;85298;-92
2022/11/23 00:18:38;;;;;;;22.98;14.15;;;6.20;99.90;6.50;98409.00;;;;338377;28;91739;-92
2022/11/23 00:18:54;;;;;;;24.67;13.90;;;6.20;99.90;6.40;98401.00;;;;338784;28;85502;-92
2022/11/23 00:19:07;;;;;;;21.98;13.18;;;6.20;99.90;6.40;98390.00;;;;338574;28;92315;-93
2022/11/23 00:19:19;;;;;;;19.75;12.57;;;6.20;99.90;6.50;98390.00;;;;336560;28;83834;-93
2022/11/23 00:19:31;;;;;;;20.83;12.43;;;6.20;99.90;6.50;98398.00;;;;338435;28;92232;-91
2022/11/23 00:19:43;;;;;;;21.02;12.35;;;6.20;99.90;6.40;98396.00;;;;338953;28;83769;-92
2022/11/23 00:19:55;;;;;;;22.80;12.68;;;6.20;99.90;6.40;98387.00;;;;338685;28;90413;-92
2022/11/23 00:20:08;;;;;;;22.67;12.18;;;6.20;99.90;6.50;98396.00;;;;340236;28;86596;-93
2022/11/23 00:20:19;;;;;;;22.02;12.60;;;6.20;99.90;6.50;98398.00;;;;336114;28;90683;-92
2022/11/23 00:20:31;;;;;;;18.77;12.43;;;6.20;99.90;6.50;98391.00;;;;337741;28;87694;-92
2022/11/23 00:20:44;;;;;;;17.90;12.10;;;6.20;99.90;6.70;98392.00;;;;339765;28;91570;-92
2022/11/23 00:20:56;;;;;;;15.88;10.50;;;6.20;99.90;6.70;98400.00;;;;340184;28;84146;-92
2022/11/23 00:21:11;;;;;;;16.60;11.18;;;6.20;99.90;6.50;98398.00;;;;334827;29;88622;-92
2022/11/23 00:21:25;;;;;;;17.83;11.88;;;6.20;99.90;6.50;98403.00;;;;337569;28;85603;-92
2022/11/23 00:21:37;;;;;;;17.42;11.30;;;6.30;99.90;6.40;98394.00;;;;338618;28;89794;-91
2022/11/23 00:21:49;;;;;;;18.83;11.48;;;6.20;99.90;6.40;98399.00;;;;340171;28;86109;-92
2022/11/23 00:22:00;;;;;;;19.70;11.52;;;6.30;99.90;6.40;98402.00;;;;338771;28;89365;-92
2022/11/23 00:22:12;;;;;;;18.25;11.02;;;6.30;99.90;6.40;98394.00;;;;340348;28;84212;-91
2022/11/23 00:22:24;;;;;;;17.63;11.60;;;6.30;99.90;6.40;98388.00;;;;338611;28;91047;-92
2022/11/23 00:22:36;;;;;;;17.26;11.28;;;6.20;99.90;6.40;98394.00;;;;338530;28;83627;-92
2022/11/23 00:22:47;;;;;;;17.75;11.02;;;6.30;99.90;6.40;98394.00;;;;341452;28;89069;-91
2022/11/23 00:22:59;;;;;;;17.10;10.45;;;6.30;99.90;6.40;98395.00;;;;338569;28;83949;-92
2022/11/23 00:23:11;;;;;;;16.02;10.35;;;6.20;99.90;6.40;98392.00;;;;340155;28;88809;-92
2022/11/23 00:23:23;;;;;;;16.00;10.48;;;6.30;99.90;6.50;98389.00;;;;337713;28;84441;-91
2022/11/23 00:23:35;;;;;;;16.13;10.85;;;6.30;99.90;6.50;98398.00;;;;338422;28;91370;-92
2022/11/23 00:23:47;;;;;;;20.00;11.88;;;6.20;99.90;6.50;98395.00;;;;341614;28;87441;-92
2022/11/23 00:23:59;;;;;;;20.38;12.35;;;6.30;99.90;6.50;98389.00;;;;338443;28;93338;-92
2022/11/23 00:24:12;;;;;;;17.98;11.63;;;6.30;99.90;6.50;98392.00;;;;341481;28;84501;-92
2022/11/23 00:24:23;;;;;;;17.20;11.43;;;6.30;99.90;6.50;98395.00;;;;338821;28;89361;-92
2022/11/23 00:24:35;;;;;;;17.60;11.38;;;6.30;99.90;6.50;98394.00;;;;340338;28;85294;-92
2022/11/23 00:24:47;;;;;;;18.42;10.88;;;6.30;99.90;6.50;98386.00;;;;339877;28;89951;-92
2022/11/23 00:24:59;;;;;;;17.15;10.27;;;6.30;99.90;6.60;98395.00;;;;340279;28;87491;-92
2022/11/23 00:25:11;;;;;;;16.45;10.52;;;6.30;99.90;6.60;98392.00;;;;337476;28;90865;-92
2022/11/23 00:25:23;;;;;;;17.48;10.73;;;6.30;99.90;6.50;98390.00;;;;339046;28;85252;-92
2022/11/23 00:25:35;;;;;;;19.00;11.32;;;6.30;99.90;6.50;98392.00;;;;337478;28;89125;-92
2022/11/23 00:25:47;;;;;;;18.70;11.73;;;6.30;99.90;6.40;98385.00;;;;339038;28;83274;-93
2022/11/23 00:25:59;;;;;;;18.77;11.75;;;6.30;99.90;6.40;98385.00;;;;339787;28;91515;-92
2022/11/23 00:26:11;;;;;;;18.70;10.88;;;6.30;99.90;6.40;98391.00;;;;341575;28;84738;-92
2022/11/23 00:26:23;;;;;;;18.15;10.90;;;6.30;99.90;6.40;98387.00;;;;339932;28;91184;-92
2022/11/23 00:26:35;;;;;;;19.17;10.98;;;6.20;99.90;6.30;98398.00;;;;337917;28;83616;-92
2022/11/23 00:26:47;;;;;;;20.80;11.32;;;6.30;99.90;6.30;98397.00;;;;336944;28;89662;-92
2022/11/23 00:26:58;;;;;;;20.55;11.98;;;6.20;99.90;6.30;98399.00;;;;334973;29;83964;-94
2022/11/23 00:27:10;;;;;;;20.60;11.90;;;6.30;99.90;6.30;98386.00;;;;336061;28;88380;-92
2022/11/23 00:27:22;;;;;;;19.35;11.77;;;6.30;99.90;6.20;98389.00;;;;336226;28;84722;-91
2022/11/23 00:27:34;;;;;;;16.75;11.57;;;6.30;99.90;6.20;98392.00;;;;336120;28;89773;-92
2022/11/23 00:27:46;;;;;;;16.10;11.27;;;6.30;99.90;6.30;98389.00;;;;339062;28;85317;-92
2022/11/23 00:27:58;;;;;;;15.93;11.23;;;6.20;99.90;6.40;98385.00;;;;337318;28;91429;-92
2022/11/23 00:28:09;;;;;;;17.55;11.07;;;6.30;99.90;6.40;98392.00;;;;338766;28;85354;-92
2022/11/23 00:28:21;;;;;;;17.58;10.88;;;6.20;99.90;6.50;98394.00;;;;337607;28;87501;-92
2022/11/23 00:28:38;;;;;;;17.80;10.52;;;6.20;99.90;6.50;98389.00;;;;337498;28;85396;-92
2022/11/23 00:28:50;;;;;;;20.00;10.98;;;6.30;99.90;6.40;98386.00;;;;337102;28;92334;-92
2022/11/23 00:29:02;;;;;;;20.50;10.65;;;6.30;99.90;6.50;98387.00;;;;335962;28;83966;-92
2022/11/23 00:29:14;;;;;;;20.98;10.40;;;6.30;99.90;6.50;98389.00;;;;336205;28;88321;-92
2022/11/23 00:29:26;;;;;;;18.40;10.32;;;6.30;99.90;6.50;98385.00;;;;335069;29;85058;-93
2022/11/23 00:29:38;;;;;;;16.30;10.45;;;6.30;99.90;6.50;98390.00;;;;334814;29;87968;-92
2022/11/23 00:29:50;;;;;;;15.02;10.32;;;6.30;99.90;6.50;98382.00;;;;338722;28;86290;-91
2022/11/23 00:30:02;;;;;;;15.32;10.80;;;6.30;99.90;6.40;98383.00;;;;335869;28;92920;-92
2022/11/23 00:30:14;;;;;;;17.33;10.88;;;6.30;99.90;6.40;98384.00;;;;336215;28;85076;-92
2022/11/23 00:30:26;;;;;;;18.15;10.55;;;6.30;99.90;6.40;98381.00;;;;337290;28;91113;-92
2022/11/23 00:30:37;;;;;;;18.95;10.60;;;6.30;99.90;6.40;98385.00;;;;338940;28;84442;-92
2022/11/23 00:30:49;;;;;;;19.10;11.55;;;6.30;99.90;6.40;98376.00;;;;335943;28;91253;-92
2022/11/23 00:31:01;;;;;;;15.77;10.55;;;6.30;99.90;6.40;98387.00;;;;337892;28;87286;-92
2022/11/23 00:31:15;;;;;;;14.20;9.85;;;6.20;99.90;6.30;98386.00;;;;338775;28;89297;-92
2022/11/23 00:31:27;;;;;;;14.02;9.85;;;6.30;99.90;6.30;98379.00;;;;338851;28;84824;-92
2022/11/23 00:31:39;;;;;;;15.15;10.77;;;6.20;99.90;6.30;98381.00;;;;340079;28;89809;-92
2022/11/23 00:31:51;;;;;;;16.42;11.25;;;6.30;99.90;6.30;98378.00;;;;336266;28;83625;-92
2022/11/23 00:32:04;;;;;;;17.67;11.30;;;6.20;99.90;6.30;98379.00;;;;339698;28;92054;-92
2022/11/23 00:32:16;;;;;;;18.75;11.05;;;6.30;99.90;6.30;98392.00;;;;340383;28;84799;-93
2022/11/23 00:32:31;;;;;;;18.42;10.75;;;6.30;99.90;6.40;98386.00;;;;338558;28;89732;-92
2022/11/23 00:32:42;;;;;;;17.75;11.13;;;6.30;99.90;6.30;98386.00;;;;338832;28;84215;-92
2022/11/23 00:32:55;;;;;;;17.67;11.07;;;6.30;99.90;6.20;98388.00;;;;336184;28;88400;-92
2022/11/23 00:33:06;;;;;;;18.92;11.38;;;6.20;99.90;6.20;98385.00;;;;339051;28;83343;-92
2022/11/23 00:33:18;;;;;;;19.73;11.07;;;6.20;99.90;6.30;98388.00;;;;338837;28;88478;-92
2022/11/23 00:33:30;;;;;;;21.58;12.57;;;6.30;99.90;6.20;98377.00;;;;338711;28;86511;-92
2022/11/23 00:33:46;;;;;;;23.75;13.30;;;6.30;99.90;6.20;98376.00;;;;337493;28;89445;-92
2022/11/23 00:33:58;;;;;;;21.95;12.88;;;6.20;99.90;6.30;98381.00;;;;337780;28;83275;-91
2022/11/23 00:34:10;;;;;;;18.55;12.27;;;6.30;99.90;6.30;98368.00;;;;339823;28;91084;-92
2022/11/23 00:34:22;;;;;;;16.85;11.85;;;6.30;99.90;6.20;98385.00;;;;339097;28;84001;-92
2022/11/23 00:34:34;;;;;;;16.05;11.55;;;6.20;99.90;6.20;98385.00;;;;338777;28;89900;-92
2022/11/23 00:34:46;;;;;;;16.42;11.98;;;6.20;99.90;6.10;98376.00;;;;338870;28;84985;-92
2022/11/23 00:34:58;;;;;;;16.98;11.90;;;6.20;99.90;6.10;98380.00;;;;340123;28;89215;-91
2022/11/23 00:35:09;;;;;;;17.17;11.65;;;6.20;99.90;6.20;98379.00;;;;339033;28;84708;-93
2022/11/23 00:35:22;;;;;;;18.60;11.57;;;6.20;99.90;6.10;98375.00;;;;335894;28;92576;-92
2022/11/23 00:35:34;;;;;;;17.88;11.30;;;6.20;99.90;6.10;98387.00;;;;338483;28;85760;-92
2022/11/23 00:35:46;;;;;;;21.05;11.73;;;6.20;99.90;6.10;98381.00;;;;337016;28;91319;-92
2022/11/23 00:36:02;;;;;;;20.05;11.63;;;6.20;99.90;6.10;98372.00;;;;337521;28;84766;-91
2022/11/23 00:36:14;;;;;;;18.08;11.20;;;6.20;99.90;6.10;98379.00;;;;340033;28;89145;-92
2022/11/23 00:36:26;;;;;;;17.33;11.02;;;6.20;99.90;6.20;98372.00;;;;340359;28;83591;-92
2022/11/23 00:36:38;;;;;;;15.40;10.82;;;6.20;99.90;6.40;98368.00;;;;338550;28;88498;-91
2022/11/23 00:36:50;;;;;;;14.60;10.90;;;6.20;99.90;6.30;98387.00;;;;337637;28;83401;-92
2022/11/23 00:37:02;;;;;;;14.77;10.93;;;6.20;99.90;6.30;98383.00;;;;337296;28;91606;-91
2022/11/23 00:37:14;;;;;;;16.30;11.10;;;6.20;99.90;6.30;98373.00;;;;337580;28;84777;-91
2022/11/23 00:37:26;;;;;;;17.80;10.75;;;6.20;99.90;6.20;98378.00;;;;337360;28;91043;-92
2022/11/23 00:37:37;;;;;;;18.60;11.30;;;6.20;99.90;6.20;98382.00;;;;337651;28;83888;-92
2022/11/23 00:37:49;;;;;;;17.67;10.57;;;6.20;99.90;6.30;98375.00;;;;340017;28;89672;-92
2022/11/23 00:38:01;;;;;;;15.75;9.90;;;6.20;99.90;6.30;98377.00;;;;336286;28;83685;-92
2022/11/23 00:38:13;;;;;;;15.65;10.25;;;6.20;99.90;6.20;98383.00;;;;339842;28;90078;-91
2022/11/23 00:38:25;;;;;;;17.02;10.80;;;6.20;99.90;6.20;98390.00;;;;337816;28;83267;-93
2022/11/23 00:38:37;;;;;;;16.77;10.70;;;6.20;99.90;6.20;98379.00;;;;341149;28;90604;-92
2022/11/23 00:38:49;;;;;;;16.45;10.35;;;6.20;99.90;6.30;98384.00;;;;336065;28;87582;-92
2022/11/23 00:39:01;;;;;;;16.25;10.20;;;6.20;99.90;6.50;98383.00;;;;338606;28;92489;-91
2022/11/23 00:39:13;;;;;;;16.58;10.50;;;6.20;99.90;6.60;98387.00;;;;336249;28;85882;-91
2022/11/23 00:39:25;;;;;;;20.20;11.13;;;6.20;99.90;6.50;98384.00;;;;337428;28;89478;-91
2022/11/23 00:39:37;;;;;;;22.17;11.43;;;6.20;99.90;6.50;98394.00;;;;340086;28;85621;-91
2022/11/23 00:39:49;;;;;;;18.48;11.77;;;6.20;99.90;6.50;98386.00;;;;337290;28;89533;-92
2022/11/23 00:40:01;;;;;;;17.00;11.30;;;6.20;99.90;6.40;98382.00;;;;339060;28;84215;-91
2022/11/23 00:40:13;;;;;;;18.70;11.07;;;6.20;99.90;6.40;98386.00;;;;338581;28;88569;-91
2022/11/23 00:40:25;;;;;;;19.55;11.35;;;6.20;99.90;6.50;98391.00;;;;340178;28;86143;-92
2022/11/23 00:40:37;;;;;;;19.67;11.40;;;6.20;99.90;6.40;98385.00;;;;337393;28;89908;-91
2022/11/23 00:40:49;;;;;;;17.65;11.48;;;6.30;99.90;6.40;98393.00;;;;341373;28;86261;-91
2022/11/23 00:41:06;;;;;;;16.35;11.07;;;6.20;99.90;6.50;98386.00;;;;337245;28;91295;-91
2022/11/23 00:41:24;;;;;;;18.16;11.02;;;6.20;99.90;6.40;98388.00;;;;338660;28;85498;-92
2022/11/23 00:41:35;;;;;;;21.92;11.18;;;6.30;99.90;6.30;98381.00;;;;336082;28;88322;-92
2022/11/23 00:41:47;;;;;;;17.48;10.32;;;6.20;99.90;6.30;98386.00;;;;339145;28;84563;-92
2022/11/23 00:41:59;;;;;;;15.30;9.85;;;6.20;99.90;6.30;98379.00;;;;336148;28;87089;-91
2022/11/23 00:42:11;;;;;;;16.08;9.98;;;6.20;99.90;6.40;98382.00;;;;340016;28;85821;-91
2022/11/23 00:42:23;;;;;;;20.00;10.48;;;6.20;99.90;6.60;98392.00;;;;338806;28;89760;-92
2022/11/23 00:42:35;;;;;;;20.80;10.70;;;6.30;99.90;6.70;98388.00;;;;340431;28;83245;-92
2022/11/23 00:42:49;;;;;;;17.52;9.98;;;6.30;99.90;6.80;98394.00;;;;337433;28;88863;-92
2022/11/23 00:43:00;;;;;;;17.00;9.98;;;6.30;99.90;6.80;98388.00;;;;340330;28;86001;-91
2022/11/23 00:43:12;;;;;;;15.88;9.77;;;6.30;99.90;6.80;98390.00;;;;337149;28;90394;-92
2022/11/23 00:43:24;;;;;;;14.95;9.55;;;6.30;99.90;6.80;98391.00;;;;338936;28;87633;-91
2022/11/23 00:43:36;;;;;;;14.52;9.18;;;6.30;99.90;6.70;98385.00;;;;338400;28;90960;-91
2022/11/23 00:43:48;;;;;;;14.70;9.32;;;6.30;99.90;6.60;98392.00;;;;337795;28;83532;-92
2022/11/23 00:44:00;;;;;;;14.57;9.13;;;6.40;99.90;6.60;98389.00;;;;340167;28;89251;-92
2022/11/23 00:44:12;;;;;;;16.90;9.60;;;6.30;99.90;6.60;98392.00;;;;339036;28;83366;-92
2022/11/23 00:44:24;;;;;;;17.88;9.65;;;6.30;99.90;6.50;98388.00;;;;336164;28;90530;-91
2022/11/23 00:44:35;;;;;;;17.80;9.93;;;6.30;99.90;6.40;98374.00;;;;337633;28;83436;-92
2022/11/23 00:44:47;;;;;;;15.55;9.30;;;6.30;99.90;6.40;98380.00;;;;337216;28;89385;-91
2022/11/23 00:44:59;;;;;;;15.30;8.75;;;6.30;99.90;6.40;98377.00;;;;336476;28;83033;-91
2022/11/23 00:45:11;;;;;;;16.65;8.98;;;6.30;99.90;6.40;98374.00;;;;336112;28;88326;-91
2022/11/23 00:45:23;;;;;;;16.50;10.10;;;6.40;99.90;6.40;98383.00;;;;336503;28;83451;-91
2022/11/23 00:45:34;;;;;;;16.38;10.40;;;6.30;99.90;6.40;98374.00;;;;337366;28;89730;-92
2022/11/23 00:45:49;;;;;;;17.55;9.80;;;6.30;99.90;6.50;98375.00;;;;338899;28;86049;-92
2022/11/23 00:46:25;;;;;;;15.98;9.30;;;6.30;99.90;6.40;98380.00;;;;337187;28;92159;-92
2022/11/23 00:46:37;;;;;;;16.67;8.77;;;6.30;99.90;6.30;98378.00;;;;336285;28;83492;-92
2022/11/23 00:46:49;;;;;;;15.85;8.98;;;6.30;99.90;6.40;98377.00;;;;336987;28;89431;-92
2022/11/23 00:47:01;;;;;;;15.52;8.77;;;6.30;99.90;6.40;98382.00;;;;336453;28;83638;-91
2022/11/23 00:47:13;;;;;;;15.75;8.98;;;6.30;99.90;6.30;98371.00;;;;337348;28;89610;-91
2022/11/23 00:47:25;;;;;;;14.38;8.90;;;6.30;99.90;6.30;98363.00;;;;337751;28;83389;-91
2022/11/23 00:47:37;;;;;;;13.13;8.93;;;6.30;99.90;6.30;98371.00;;;;337320;28;90137;-92
2022/11/23 00:47:49;;;;;;;14.66;9.14;;;6.30;99.90;6.30;98365.00;;;;336494;28;82697;-92
2022/11/23 00:48:01;;;;;;;15.05;9.52;;;6.30;99.90;6.40;98366.00;;;;338598;28;92667;-92
2022/11/23 00:48:13;;;;;;;15.68;9.50;;;6.30;99.90;6.40;98361.00;;;;338966;28;83559;-91
2022/11/23 00:48:25;;;;;;;15.20;9.00;;;6.30;99.90;6.40;98367.00;;;;337381;28;91507;-92
2022/11/23 00:48:37;;;;;;;15.68;8.75;;;6.30;99.90;6.50;98372.00;;;;340198;28;82298;-92
2022/11/23 00:48:50;;;;;;;16.92;9.70;;;6.30;99.90;6.40;98371.00;;;;334885;28;88318;-92
2022/11/23 00:49:03;;;;;;;16.35;10.25;;;6.20;99.90;6.40;98367.00;;;;338810;28;83546;-91
2022/11/23 00:49:15;;;;;;;15.38;9.70;;;6.20;99.90;6.50;98369.00;;;;340176;28;89605;-91
2022/11/23 00:49:27;;;;;;;15.48;9.50;;;6.20;99.90;6.40;98368.00;;;;338954;28;84127;-91
2022/11/23 00:49:39;;;;;;;13.90;9.15;;;6.20;99.90;6.40;98365.00;;;;337387;28;89099;-91
2022/11/23 00:49:50;;;;;;;15.00;9.38;;;6.20;99.90;6.40;98368.00;;;;339128;28;83466;-91
2022/11/23 00:50:02;;;;;;;14.90;9.88;;;6.20;99.90;6.30;98370.00;;;;338878;28;87391;-90
2022/11/23 00:50:15;;;;;;;16.42;10.05;;;6.20;99.90;6.30;98366.00;;;;338872;28;82866;-92
2022/11/23 00:50:27;;;;;;;17.55;10.32;;;6.20;99.90;6.20;98375.00;;;;337465;28;89663;-92
2022/11/23 00:50:39;;;;;;;17.13;10.38;;;6.20;99.90;6.20;98369.00;;;;337396;28;86213;-92
2022/11/23 00:50:50;;;;;;;14.93;9.95;;;6.20;99.90;6.10;98370.00;;;;338408;28;92703;-92
2022/11/23 00:51:04;;;;;;;14.57;9.32;;;6.20;99.90;6.20;98376.00;;;;337593;28;83962;-91
2022/11/23 00:51:22;;;;;;;14.32;9.55;;;6.20;99.90;6.20;98372.00;;;;340192;28;89276;-92
2022/11/23 00:51:35;;;;;;;13.77;9.77;;;6.20;99.90;6.10;98375.00;;;;340193;28;82569;-91
2022/11/23 00:51:47;;;;;;;13.77;9.50;;;6.20;99.90;6.10;98365.00;;;;338590;28;89794;-92
2022/11/23 00:51:58;;;;;;;14.15;9.50;;;6.20;99.90;6.10;98368.00;;;;337777;28;83446;-91
2022/11/23 00:52:10;;;;;;;13.68;9.63;;;6.10;99.90;6.10;98371.00;;;;336052;28;88588;-92
2022/11/23 00:52:22;;;;;;;14.50;9.90;;;6.10;99.90;6.00;98375.00;;;;337514;28;83092;-92
2022/11/23 00:52:34;;;;;;;13.98;8.85;;;6.10;99.90;6.00;98369.00;;;;339922;28;90945;-92
2022/11/23 00:52:46;;;;;;;13.57;8.82;;;6.10;99.90;6.10;98363.00;;;;337760;28;83512;-91
2022/11/23 00:52:58;;;;;;;14.30;8.52;;;6.10;99.90;6.20;98374.00;;;;337416;28;91488;-92
2022/11/23 00:53:10;;;;;;;15.35;9.23;;;6.10;99.90;6.20;98368.00;;;;337522;28;83300;-92
2022/11/23 00:53:21;;;;;;;16.25;9.68;;;6.10;99.90;6.30;98371.00;;;;337128;28;90280;-92
2022/11/23 00:53:34;;;;;;;16.65;10.18;;;6.10;99.90;6.20;98365.00;;;;339117;28;83374;-92
2022/11/23 00:53:46;;;;;;;16.13;10.02;;;6.10;99.90;6.20;98369.00;;;;340101;28;89492;-92
2022/11/23 00:53:58;;;;;;;13.88;9.23;;;6.10;99.90;6.20;98370.00;;;;339069;28;84539;-92
2022/11/23 00:54:10;;;;;;;13.93;9.00;;;6.10;99.90;6.20;98364.00;;;;337129;28;91820;-92
2022/11/23 00:54:22;;;;;;;14.98;8.52;;;6.10;99.90;6.20;98369.00;;;;341749;28;83226;-92
2022/11/23 00:54:34;;;;;;;16.52;9.13;;;6.10;99.90;6.30;98362.00;;;;336147;28;89451;-92
2022/11/23 00:54:46;;;;;;;14.70;9.27;;;6.10;99.90;6.20;98372.00;;;;340206;28;83281;-92
2022/11/23 00:54:57;;;;;;;15.70;9.93;;;6.10;99.90;6.10;98356.00;;;;338704;28;90604;-92
2022/11/23 00:55:09;;;;;;;14.98;10.15;;;6.10;99.90;6.10;98356.00;;;;339200;28;83187;-92
2022/11/23 00:55:21;;;;;;;13.48;9.60;;;6.10;99.90;6.00;98362.00;;;;340208;28;88682;-92
2022/11/23 00:55:33;;;;;;;15.07;9.90;;;6.10;99.90;6.00;98373.00;;;;338970;28;83373;-92
2022/11/23 00:55:54;;;;;;;16.67;10.35;;;6.10;99.90;6.10;98373.00;;;;338427;28;91555;-92
2022/11/23 00:56:06;;;;;;;16.35;9.90;;;6.10;99.90;6.10;98360.00;;;;340430;28;83171;-92
2022/11/23 00:56:18;;;;;;;15.05;9.32;;;6.10;99.90;6.20;98357.00;;;;338519;28;89751;-92
2022/11/23 00:56:31;;;;;;;14.57;9.73;;;6.10;99.90;6.10;98367.00;;;;339090;28;83526;-91